Time;durP1;ratioP1;P1;durP2;ratioP2;P2;SDS_P1;SDS_P2;PMS_P1;PMS_P2;Temp;Humidity;BMP_temperature;BMP_pressure;BME280_temperature;BME280_humidity;BME280_pressure;Samples;Min_cycle;Max_cycle;Signal;HPM_P1;HPM_P2
2022/10/18 05:46:38;;;;;;;20.52;14.03;;;;;;;11.25;84.17;101136.19;1778868;78;25663;-75
2022/10/18 05:49:05;;;;;;;20.52;14.18;;;;;;;11.27;84.18;101142.67;1753760;81;25762;-75
2022/10/18 05:51:31;;;;;;;21.52;13.32;;;;;;;11.29;84.16;101141.30;1755571;80;25623;-75
2022/10/18 05:53:58;;;;;;;28.40;16.37;;;;;;;11.34;84.23;101143.11;1755787;81;27911;-75
2022/10/18 05:56:24;;;;;;;23.10;15.45;;;;;;;11.38;84.29;101145.50;1762113;80;25571;-75
2022/10/18 05:58:51;;;;;;;23.77;14.53;;;;;;;11.42;84.30;101138.38;1753178;81;25660;-76
2022/10/18 06:01:19;;;;;;;18.17;13.62;;;;;;;11.48;84.16;101143.99;1760449;80;25635;-77
2022/10/18 06:03:45;;;;;;;23.12;12.93;;;;;;;11.55;84.06;101149.05;1718969;82;25677;-77
2022/10/18 06:06:13;;;;;;;21.02;13.08;;;;;;;11.62;83.99;101155.45;1761095;80;27377;-76
2022/10/18 06:08:42;;;;;;;19.27;12.80;;;;;;;11.66;83.91;101151.83;1756799;80;25689;-75
2022/10/18 06:11:12;;;;;;;20.43;14.00;;;;;;;11.77;84.22;101157.91;1759872;80;25565;-75
2022/10/18 06:13:45;;;;;;;18.35;12.93;;;;;;;11.86;84.00;101162.91;1760965;80;25449;-76
2022/10/18 06:16:14;;;;;;;19.40;13.93;;;;;;;11.95;84.00;101165.77;1763587;80;25604;-75
2022/10/18 06:18:41;;;;;;;23.07;13.10;;;;;;;12.05;83.79;101161.53;1762144;80;27409;-75
2022/10/18 06:21:08;;;;;;;16.90;13.25;;;;;;;12.14;83.54;101153.54;1754747;80;26265;-75
2022/10/18 06:23:41;;;;;;;19.52;12.20;;;;;;;12.22;83.44;101157.45;1759039;80;25718;-75
2022/10/18 06:26:10;;;;;;;21.65;12.68;;;;;;;12.33;83.31;101157.53;1726832;81;25788;-73
2022/10/18 06:28:38;;;;;;;17.65;11.60;;;;;;;12.44;83.24;101155.42;1718850;83;25644;-74
2022/10/18 06:31:05;;;;;;;20.32;13.25;;;;;;;12.57;83.55;101160.06;1721890;81;27414;-75
2022/10/18 06:33:35;;;;;;;28.32;12.55;;;;;;;12.73;83.59;101161.91;1723765;81;25720;-74
2022/10/18 06:36:09;;;;;;;16.45;12.20;;;;;;;12.85;83.31;101162.77;1700603;83;25751;-73
2022/10/18 06:38:37;;;;;;;19.23;12.78;;;;;;;13.01;83.08;101153.77;1717520;83;25893;-73
2022/10/18 06:41:05;;;;;;;18.57;11.97;;;;;;;13.18;83.52;101155.84;1718533;82;25649;-74
2022/10/18 06:43:31;;;;;;;17.92;12.05;;;;;;;13.34;82.72;101154.41;1754203;81;27467;-76
2022/10/18 06:46:00;;;;;;;16.82;12.43;;;;;;;13.47;82.21;101159.56;1718583;82;25549;-75
2022/10/18 06:48:27;;;;;;;18.55;11.93;;;;;;;13.64;82.41;101162.41;1770488;78;25658;-75
2022/10/18 06:51:00;;;;;;;20.08;12.98;;;;;;;13.79;81.53;101157.17;1784138;78;25376;-71
2022/10/18 06:53:30;;;;;;;19.25;12.20;;;;;;;13.95;81.97;101156.79;1745936;80;25627;-73
2022/10/18 06:56:03;;;;;;;15.60;11.20;;;;;;;14.14;81.70;101155.22;1755757;80;27366;-73
2022/10/18 06:58:30;;;;;;;18.90;11.30;;;;;;;14.30;80.62;101161.05;1777693;80;25443;-74
2022/10/18 07:00:58;;;;;;;23.35;12.28;;;;;;;14.45;80.53;101157.12;1797458;78;25694;-75
2022/10/18 07:03:26;;;;;;;20.55;12.05;;;;;;;14.58;80.56;101163.02;1782032;78;26138;-76
2022/10/18 07:05:52;;;;;;;19.85;11.93;;;;;;;14.80;80.68;101162.16;1794788;78;25637;-76
2022/10/18 07:08:18;;;;;;;17.42;12.05;;;;;;;14.99;80.22;101165.97;1782978;78;27374;-75
2022/10/18 07:10:52;;;;;;;17.67;11.68;;;;;;;15.16;79.52;101174.73;1800640;78;25703;-74
2022/10/18 07:13:19;;;;;;;20.08;12.35;;;;;;;15.36;79.53;101165.69;1787381;78;25625;-75
2022/10/18 07:15:46;;;;;;;25.50;13.05;;;;;;;15.56;78.63;101171.06;1820387;78;25678;-75
2022/10/18 07:18:12;;;;;;;16.00;10.55;;;;;;;15.74;78.29;101166.42;1763737;80;25698;-74
2022/10/18 07:20:39;;;;;;;18.35;11.78;;;;;;;15.88;77.61;101164.33;1730031;81;27132;-75
2022/10/18 07:23:07;;;;;;;17.23;11.45;;;;;;;16.05;76.93;101166.23;1757624;81;25541;-75
2022/10/18 07:25:34;;;;;;;21.87;11.05;;;;;;;16.21;76.74;101164.59;1758186;81;25410;-76
2022/10/18 07:28:01;;;;;;;21.17;11.45;;;;;;;16.48;76.52;101164.48;1757831;81;25635;-76
2022/10/18 07:30:27;;;;;;;18.80;11.00;;;;;;;16.75;76.39;101164.05;1757273;81;25769;-76
2022/10/18 07:32:54;;;;;;;18.77;13.15;;;;;;;16.90;74.27;101165.42;1758512;81;28088;-75
2022/10/18 07:35:20;;;;;;;16.97;11.25;;;;;;;16.92;73.65;101173.30;1758493;81;25664;-76
2022/10/18 07:37:46;;;;;;;16.90;10.75;;;;;;;16.97;73.69;101169.83;1749050;81;25539;-75
2022/10/18 07:40:13;;;;;;;15.05;10.85;;;;;;;17.08;73.14;101174.33;1754617;80;25564;-76
2022/10/18 07:42:39;;;;;;;14.93;11.43;;;;;;;17.18;72.93;101172.57;1747259;80;25601;-76
2022/10/18 07:45:12;;;;;;;21.25;11.00;;;;;;;17.33;72.93;101164.89;1759799;80;27928;-75
2022/10/18 07:47:39;;;;;;;17.55;10.98;;;;;;;17.45;72.19;101164.16;1760066;80;25454;-76
2022/10/18 07:50:08;;;;;;;25.57;11.53;;;;;;;17.51;71.92;101158.16;1736990;81;25611;-75
2022/10/18 07:52:35;;;;;;;17.85;11.78;;;;;;;17.67;72.06;101154.80;1763481;80;25782;-75
2022/10/18 07:55:01;;;;;;;19.15;12.37;;;;;;;17.80;71.06;101156.45;1755918;80;25591;-75
2022/10/18 07:57:28;;;;;;;21.93;11.50;;;;;;;17.93;71.31;101149.13;1744470;79;27326;-77
2022/10/18 07:59:55;;;;;;;19.65;11.40;;;;;;;18.16;70.35;101146.76;1753072;81;25377;-75
2022/10/18 08:02:23;;;;;;;31.50;11.80;;;;;;;18.35;70.33;101151.69;1761979;81;25675;-75
2022/10/18 08:04:49;;;;;;;16.52;11.48;;;;;;;18.63;69.96;101148.30;1762415;80;26438;-75
2022/10/18 08:07:15;;;;;;;22.82;12.00;;;;;;;18.88;69.26;101135.37;1763366;81;25766;-75
2022/10/18 08:09:41;;;;;;;16.60;11.10;;;;;;;19.10;68.97;101129.97;1762044;81;27324;-75
2022/10/18 08:12:07;;;;;;;16.07;11.08;;;;;;;19.27;67.54;101135.75;1762385;81;25652;-75
2022/10/18 08:14:34;;;;;;;16.65;11.75;;;;;;;19.27;66.63;101135.75;1763161;80;25654;-75
2022/10/18 08:17:00;;;;;;;19.12;11.53;;;;;;;19.34;66.28;101127.75;1762179;80;25573;-75
2022/10/18 08:19:26;;;;;;;16.85;10.88;;;;;;;19.43;66.30;101126.78;1756786;80;25652;-74
2022/10/18 08:21:52;;;;;;;24.63;11.93;;;;;;;19.58;65.56;101135.08;1782609;79;27297;-74
2022/10/18 08:24:18;;;;;;;20.35;11.45;;;;;;;19.62;65.28;101128.31;1776174;79;25740;-74
2022/10/18 08:26:44;;;;;;;18.30;11.15;;;;;;;19.74;65.03;101126.91;1730082;81;25680;-75
2022/10/18 08:29:12;;;;;;;19.70;12.10;;;;;;;19.78;64.44;101127.81;1763651;81;26475;-76
2022/10/18 08:31:38;;;;;;;26.95;15.60;;;;;;;19.93;64.76;101131.71;1764044;81;25607;-74
2022/10/18 08:34:04;;;;;;;21.68;12.70;;;;;;;20.21;64.66;101116.31;1763601;81;27376;-76
2022/10/18 08:36:31;;;;;;;15.48;10.32;;;;;;;20.38;63.97;101116.53;1763691;81;25584;-76
2022/10/18 08:38:57;;;;;;;20.12;11.03;;;;;;;20.60;64.05;101115.09;1763692;81;25445;-74
2022/10/18 08:41:47;;;;;;;17.37;10.98;;;;;;;20.83;62.88;101119.38;1764174;81;25684;-74
2022/10/18 08:44:26;;;;;;;14.43;10.55;;;;;;;20.94;61.96;101116.27;1763989;80;25589;-76
2022/10/18 08:47:00;;;;;;;21.57;11.08;;;;;;;21.09;62.16;101106.38;1764126;80;28049;-74
2022/10/18 08:49:44;;;;;;;79.82;73.85;;;;;;;21.53;62.68;101103.36;1776282;80;25781;-74
2022/10/18 08:55:40;;;;;;;22.62;10.28;;;;;;;22.43;57.86;101100.79;1705890;82;26134;-75
2022/10/18 08:58:28;;;;;;;15.63;11.55;;;;;;;22.55;58.76;101101.16;1706055;82;25584;-72
2022/10/18 09:01:25;;;;;;;23.62;10.63;;;;;;;23.16;57.44;101105.38;1712478;83;27436;-72
2022/10/18 09:04:09;;;;;;;15.00;11.45;;;;;;;23.29;56.46;101095.08;1705885;82;25583;-72
2022/10/18 09:06:57;;;;;;;17.48;12.68;;;;;;;23.94;57.09;101104.63;1707732;82;25908;-72
2022/10/18 09:09:47;;;;;;;18.17;11.55;;;;;;;24.31;53.08;101094.08;1708843;83;25704;-73
2022/10/18 09:12:52;;;;;;;14.65;11.63;;;;;;;24.38;53.69;101094.94;1685604;84;25299;-71
2022/10/18 09:15:49;;;;;;;19.23;12.00;;;;;;;24.68;52.22;101092.56;1675042;84;27378;-74
2022/10/18 09:18:30;;;;;;;18.65;12.50;;;;;;;24.54;51.33;101094.66;1708491;82;25286;-74
2022/10/18 09:20:59;;;;;;;16.45;11.35;;;;;;;25.01;52.28;101094.11;1707728;82;25341;-72
2022/10/18 09:23:48;;;;;;;20.02;12.80;;;;;;;25.43;50.92;101098.25;1706880;83;25747;-73
2022/10/18 09:26:22;;;;;;;17.30;11.57;;;;;;;25.52;50.82;101095.89;1706207;83;25639;-73
2022/10/18 09:28:56;;;;;;;19.95;12.23;;;;;;;25.72;49.51;101092.17;1704699;82;27379;-75
2022/10/18 09:31:59;;;;;;;21.23;12.00;;;;;;;25.73;49.30;101095.94;1731515;81;25716;-73
2022/10/18 09:34:53;;;;;;;19.87;11.97;;;;;;;25.84;48.95;101095.16;1761028;80;25760;-70
2022/10/18 09:37:22;;;;;;;21.75;18.23;;;;;;;26.04;48.12;101088.06;1756999;80;26251;-71
2022/10/18 09:39:51;;;;;;;62.35;56.68;;;;;;;26.38;48.14;101073.77;1761217;80;25405;-72
2022/10/18 09:42:25;;;;;;;;;;;;;;;26.57;47.72;101069.77;1763829;80;27367;-72
2022/10/18 09:44:54;;;;;;;48.92;45.35;;;;;;;26.80;46.75;101068.53;1761061;80;25380;-72
2022/10/18 09:47:29;;;;;;;18.23;11.35;;;;;;;27.28;47.46;101067.15;1761182;80;25689;-71
2022/10/18 09:50:04;;;;;;;19.52;12.60;;;;;;;27.57;46.60;101069.95;1761053;80;25841;-71
2022/10/18 09:52:39;;;;;;;21.70;13.55;;;;;;;28.17;45.79;101068.51;1749779;80;25461;-71
2022/10/18 09:55:22;;;;;;;19.10;12.43;;;;;;;28.42;44.93;101059.14;1754027;80;27300;-72
2022/10/18 09:57:55;;;;;;;19.55;14.03;;;;;;;28.54;44.10;101054.43;1757433;80;25445;-71
2022/10/18 10:00:42;;;;;;;20.88;13.10;;;;;;;28.36;42.58;101053.22;1762936;80;25701;-72
2022/10/18 10:03:13;;;;;;;19.77;13.78;;;;;;;28.21;43.14;101042.83;1749340;80;25756;-69
2022/10/18 10:05:42;;;;;;;23.73;14.33;;;;;;;28.32;43.03;101031.62;1763647;80;25374;-71
2022/10/18 10:08:08;;;;;;;19.82;13.43;;;;;;;28.38;41.81;101036.13;1760692;79;27399;-71
2022/10/18 10:10:40;;;;;;;19.98;14.73;;;;;;;28.15;42.68;101024.25;1763726;81;25610;-68
2022/10/18 10:13:21;;;;;;;18.73;13.50;;;;;;;28.31;43.09;101022.47;1785853;79;25429;-71
2022/10/18 10:15:59;;;;;;;19.10;12.60;;;;;;;28.65;42.82;101027.28;1683951;84;26301;-71
2022/10/18 10:18:33;;;;;;;19.05;12.78;;;;;;;28.81;42.72;101017.55;1703910;83;25687;-71
2022/10/18 10:21:04;;;;;;;22.93;13.38;;;;;;;29.23;42.39;101020.98;1703928;82;27406;-71
2022/10/18 10:23:44;;;;;;;19.02;12.63;;;;;;;29.50;41.78;101014.00;1703801;83;25797;-71
2022/10/18 10:26:30;;;;;;;19.05;12.98;;;;;;;29.73;41.62;101013.23;1703876;82;25667;-72
2022/10/18 10:28:56;;;;;;;19.40;14.03;;;;;;;29.97;40.43;101006.29;1679164;83;25623;-70
2022/10/18 10:31:35;;;;;;;21.85;14.07;;;;;;;29.54;39.26;101002.80;1704010;83;25417;-73
2022/10/18 10:34:14;;;;;;;;;;;;;;;28.69;39.25;100993.25;1706452;83;27505;-72
2022/10/18 10:36:53;;;;;;;22.42;13.93;;;;;;;27.99;39.27;100997.77;1703782;83;25687;-71
2022/10/18 10:39:23;;;;;;;23.05;14.05;;;;;;;27.18;40.07;100989.65;1703828;82;25592;-70
2022/10/18 10:41:54;;;;;;;21.52;13.53;;;;;;;26.57;40.76;100983.77;1703713;83;26217;-70
2022/10/18 10:44:25;;;;;;;23.67;13.68;;;;;;;25.97;41.54;100974.44;1703956;83;25469;-69
2022/10/18 10:46:53;;;;;;;20.43;13.40;;;;;;;25.67;42.52;100972.84;1703500;83;28360;-72
2022/10/18 10:49:45;;;;;;;20.32;14.07;;;;;;;25.37;43.01;100966.91;1701855;83;29601;-68
2022/10/18 10:52:19;;;;;;;20.65;14.03;;;;;;;25.27;43.75;100966.52;1696365;83;25858;-69
2022/10/18 10:54:46;;;;;;;20.37;13.62;;;;;;;25.01;44.13;100964.84;1687893;83;26211;-71
2022/10/18 10:57:18;;;;;;;21.02;14.60;;;;;;;25.06;45.26;100966.44;1703643;83;25707;-70
2022/10/18 10:59:48;;;;;;;25.40;14.30;;;;;;;25.47;46.30;100956.42;1703466;83;27967;-70
2022/10/18 11:02:29;;;;;;;21.75;14.38;;;;;;;26.05;45.82;100956.61;1703231;82;25718;-71
2022/10/18 11:05:00;;;;;;;21.05;13.30;;;;;;;26.44;45.12;100939.06;1703574;83;25466;-70
2022/10/18 11:07:43;;;;;;;18.92;14.38;;;;;;;26.98;44.12;100942.95;1677182;82;25715;-70
2022/10/18 11:10:17;;;;;;;22.93;14.78;;;;;;;27.20;43.14;100942.22;1703572;82;25432;-69
2022/10/18 11:13:09;;;;;;;22.13;13.25;;;;;;;27.28;43.09;100942.19;1703628;82;27333;-72
2022/10/18 11:15:42;;;;;;;24.32;14.47;;;;;;;27.33;42.50;100943.16;1703497;83;25640;-70
2022/10/18 11:18:29;;;;;;;23.00;13.80;;;;;;;27.08;42.15;100937.76;1703027;83;25558;-72
2022/10/18 11:21:27;;;;;;;23.60;15.03;;;;;;;26.74;42.23;100932.20;1703535;83;25689;-70
2022/10/18 11:23:55;;;;;;;22.10;14.20;;;;;;;26.46;42.64;100930.34;1627895;86;25564;-69
2022/10/18 11:26:49;;;;;;;19.10;14.18;;;;;;;26.30;42.88;100928.63;1606744;88;27330;-69
2022/10/18 11:29:39;;;;;;;17.37;13.40;;;;;;;26.26;43.63;100928.03;1627149;86;25614;-70
2022/10/18 11:32:17;;;;;;;19.77;12.90;;;;;;;26.31;43.87;100922.67;1627739;86;25700;-68
2022/10/18 11:34:55;;;;;;;24.15;13.72;;;;;;;26.46;44.68;100915.09;1627534;86;34478;-68
2022/10/18 11:38:00;;;;;;;19.07;13.05;;;;;;;26.76;44.35;100924.26;1606252;86;25665;-68
2022/10/18 11:40:47;;;;;;;26.62;13.53;;;;;;;26.98;44.41;100917.98;1627660;86;28111;-69
2022/10/18 11:43:34;;;;;;;21.50;16.15;;;;;;;26.75;43.43;100916.34;1572154;90;25553;-70
2022/10/18 11:46:20;;;;;;;20.55;13.68;;;;;;;26.54;42.94;100908.90;1572243;90;25666;-68
2022/10/18 11:49:04;;;;;;;22.02;14.50;;;;;;;26.11;43.27;100909.08;1571291;89;25733;-67
2022/10/18 11:51:45;;;;;;;24.92;20.17;;;;;;;25.69;43.89;100905.39;1580082;89;25589;-69
2022/10/18 11:54:29;;;;;;;21.05;15.10;;;;;;;25.42;44.36;100902.83;1626818;86;27803;-68
2022/10/18 11:57:17;;;;;;;34.35;18.67;;;;;;;25.23;44.86;100899.84;1615701;88;25808;-67
2022/10/18 11:59:56;;;;;;;24.63;15.83;;;;;;;25.05;46.16;100889.55;1641882;83;25717;-67
2022/10/18 12:02:46;;;;;;;20.85;15.23;;;;;;;25.19;45.94;100884.61;1695267;83;25854;-69
2022/10/18 12:05:14;;;;;;;20.48;15.43;;;;;;;25.12;45.58;100876.31;1688226;83;25633;-68
2022/10/18 12:07:47;;;;;;;22.15;16.25;;;;;;;25.01;45.75;100870.75;1704484;83;27198;-68
2022/10/18 12:10:17;;;;;;;26.50;16.87;;;;;;;24.96;45.88;100862.27;1695363;83;25531;-69
2022/10/18 12:12:59;;;;;;;22.67;14.65;;;;;;;25.04;46.75;100867.80;1703792;82;25514;-67
2022/10/18 12:15:29;;;;;;;25.45;16.20;;;;;;;25.31;46.96;100864.86;1669181;84;25683;-68
2022/10/18 12:18:09;;;;;;;21.10;16.85;;;;;;;25.59;46.64;100861.89;1669786;85;26486;-68
2022/10/18 12:20:53;;;;;;;20.27;16.35;;;;;;;25.67;45.99;100864.81;1685438;82;27246;-69
2022/10/18 12:23:38;;;;;;;26.20;16.70;;;;;;;25.38;45.07;100854.98;1672009;83;25522;-69
2022/10/18 12:26:09;;;;;;;21.20;15.65;;;;;;;25.01;44.96;100854.15;1702055;82;25626;-69
2022/10/18 12:29:08;;;;;;;26.93;15.90;;;;;;;24.56;45.48;100857.85;1708299;82;25627;-67
2022/10/18 12:31:53;;;;;;;22.80;15.63;;;;;;;24.30;46.29;100852.02;1640305;85;25736;-68
2022/10/18 12:34:26;;;;;;;22.85;17.00;;;;;;;24.02;46.95;100841.84;1647669;85;28011;-68
2022/10/18 12:37:46;;;;;;;22.05;14.53;;;;;;;23.82;47.44;100834.44;1618130;87;25800;-70
2022/10/18 12:40:41;;;;;;;23.52;15.98;;;;;;;23.66;47.50;100834.70;1616757;87;25707;-69
2022/10/18 12:43:21;;;;;;;21.70;16.55;;;;;;;23.43;48.42;100830.83;1640833;86;26303;-69
2022/10/18 12:45:53;;;;;;;27.87;17.17;;;;;;;23.18;48.50;100818.22;1646801;86;25671;-70
2022/10/18 12:48:38;;;;;;;25.05;16.48;;;;;;;23.03;49.00;100809.59;1634725;86;27945;-70
2022/10/18 12:51:20;;;;;;;22.98;16.05;;;;;;;22.85;49.09;100809.43;1648762;86;25506;-68
2022/10/18 12:54:02;;;;;;;23.32;15.72;;;;;;;22.65;49.58;100806.90;1644521;86;25655;-68
2022/10/18 12:56:45;;;;;;;29.72;17.00;;;;;;;22.51;50.14;100800.66;1644896;85;25643;-68
2022/10/18 12:59:18;;;;;;;32.40;20.55;;;;;;;22.37;50.66;100798.55;1684721;83;25827;-70
2022/10/18 13:01:59;;;;;;;24.18;16.87;;;;;;;22.20;50.96;100790.27;1689024;83;27817;-69
2022/10/18 13:04:33;;;;;;;21.20;16.80;;;;;;;22.10;51.24;100785.44;1683367;83;25916;-70
2022/10/18 13:07:08;;;;;;;21.85;17.02;;;;;;;21.94;51.17;100781.48;1686799;83;25733;-70
2022/10/18 13:09:40;;;;;;;27.48;16.62;;;;;;;21.80;51.47;100779.94;1743366;80;25621;-70
2022/10/18 13:12:15;;;;;;;23.87;16.23;;;;;;;21.68;51.92;100779.59;1761116;80;25582;-72
2022/10/18 13:15:07;;;;;;;24.35;16.65;;;;;;;21.54;52.55;100778.81;1745116;80;26923;-71
2022/10/18 13:17:59;;;;;;;23.35;16.10;;;;;;;21.41;53.04;100780.95;1784829;80;25604;-70
2022/10/18 13:20:47;;;;;;;32.00;16.37;;;;;;;;;;1734938;80;25610;-70
2022/10/18 13:23:54;;;;;;;22.93;17.17;;;;;;;21.15;53.92;100776.25;1761682;80;26154;-69
2022/10/18 13:26:41;;;;;;;33.38;22.02;;;;;;;21.07;54.49;100777.30;1682902;82;25581;-70
2022/10/18 13:29:35;;;;;;;30.90;21.68;;;;;;;20.95;54.51;100769.25;1678102;84;27965;-70
2022/10/18 13:32:31;;;;;;;27.17;17.48;;;;;;;20.83;54.85;100765.52;1678101;84;25621;-70
2022/10/18 13:34:59;;;;;;;22.20;17.07;;;;;;;20.73;55.33;100755.73;1692828;83;25674;-70
2022/10/18 13:37:28;;;;;;;21.65;17.00;;;;;;;20.66;55.63;100752.28;1693622;83;25603;-71
2022/10/18 13:40:24;;;;;;;31.48;19.62;;;;;;;20.64;55.89;100755.39;1685566;84;26138;-73
2022/10/18 13:42:51;;;;;;;29.55;17.82;;;;;;;20.61;56.36;100751.18;1707229;83;27266;-73
2022/10/18 13:45:36;;;;;;;29.50;18.50;;;;;;;20.51;56.54;100751.20;1704301;83;25513;-74
2022/10/18 13:48:32;;;;;;;28.23;16.97;;;;;;;20.42;57.01;100748.69;1698210;83;25704;-73
2022/10/18 13:51:39;;;;;;;26.48;17.35;;;;;;;20.34;57.10;100743.63;1710117;82;25600;-74
2022/10/18 13:54:43;;;;;;;24.50;16.90;;;;;;;20.29;57.25;100738.44;1675653;83;25619;-73
2022/10/18 13:57:34;;;;;;;27.60;21.40;;;;;;;20.26;57.53;100735.63;1716794;82;27239;-74
2022/10/18 14:00:38;;;;;;;25.08;17.20;;;;;;;20.21;57.74;100720.83;1715686;82;25618;-73
2022/10/18 14:03:43;;;;;;;27.05;18.10;;;;;;;20.17;58.01;100725.47;1721697;80;26430;-72
2022/10/18 14:06:17;;;;;;;22.40;16.48;;;;;;;20.11;58.47;100723.02;1765070;79;26323;-74
2022/10/18 14:09:07;;;;;;;24.72;16.62;;;;;;;20.06;58.36;100713.70;1768416;79;25478;-74
2022/10/18 14:11:51;;;;;;;31.75;16.80;;;;;;;20.05;58.84;100713.48;1755412;79;28184;-72
2022/10/18 14:14:39;;;;;;;26.37;17.90;;;;;;;20.02;58.84;100710.08;1790546;79;25567;-72
2022/10/18 14:17:36;;;;;;;27.62;17.85;;;;;;;20.01;59.50;100709.09;1764663;79;25563;-70
2022/10/18 14:20:30;;;;;;;24.95;18.20;;;;;;;19.99;59.98;100702.59;1765438;79;25625;-71
2022/10/18 14:23:23;;;;;;;33.95;19.20;;;;;;;19.96;59.99;100700.56;1763300;79;25591;-72
2022/10/18 14:25:50;;;;;;;27.87;17.80;;;;;;;19.93;60.16;100701.28;1775027;79;27217;-76
2022/10/18 14:28:20;;;;;;;30.52;18.82;;;;;;;19.85;60.28;100690.73;1776737;80;25535;-75
2022/10/18 14:31:08;;;;;;;31.85;19.70;;;;;;;19.83;60.22;100694.42;1776702;79;25457;-76
2022/10/18 14:33:41;;;;;;;85.35;69.65;;;;;;;19.81;60.59;100695.95;1776663;80;26180;-75
2022/10/18 14:36:14;;;;;;;39.50;26.12;;;;;;;19.74;60.70;100682.86;1769903;79;25721;-74
2022/10/18 14:38:57;;;;;;;24.77;20.50;;;;;;;19.70;60.91;100686.09;1769253;80;28597;-74
2022/10/18 14:41:32;;;;;;;90.45;61.33;;;;;;;19.63;60.99;100676.34;1764927;79;25562;-75
2022/10/18 14:44:18;;;;;;;47.60;32.48;;;;;;;19.55;61.25;100678.95;1775943;79;25633;-73
2022/10/18 14:46:50;;;;;;;34.48;25.95;;;;;;;19.46;61.59;100677.56;1782261;79;25709;-73
2022/10/18 14:49:19;;;;;;;28.55;19.20;;;;;;;19.36;61.59;100669.35;1793257;79;25542;-74
2022/10/18 14:51:49;;;;;;;;;;;;;;;19.30;61.73;100668.82;1803155;79;27172;-72
2022/10/18 14:54:22;;;;;;;31.55;20.52;;;;;;;19.24;61.86;100668.91;1801311;79;25586;-73
2022/10/18 14:56:49;;;;;;;30.08;20.43;;;;;;;19.16;61.76;100656.97;1787237;78;25628;-73
2022/10/18 14:59:23;;;;;;;32.60;20.02;;;;;;;19.10;62.18;100656.23;1787773;79;25633;-73
2022/10/18 15:02:03;;;;;;;30.10;20.02;;;;;;;19.03;62.13;100655.50;1768090;79;25593;-76
2022/10/18 15:04:32;;;;;;;39.40;25.27;;;;;;;18.96;62.60;100656.13;1788163;79;27696;-76
2022/10/18 15:07:03;;;;;;;28.23;19.23;;;;;;;18.84;62.87;100666.63;1749175;79;25591;-76
2022/10/18 15:09:34;;;;;;;22.15;15.15;;;;;;;18.73;63.41;100670.23;1771996;79;25638;-76
2022/10/18 15:12:05;;;;;;;17.67;11.88;;;;;;;18.61;63.47;100666.46;1740262;79;26348;-73
2022/10/18 15:14:34;;;;;;;13.32;8.95;;;;;;;18.49;63.62;100667.93;1756525;79;25600;-73
2022/10/18 15:17:09;;;;;;;8.70;7.70;;;;;;;18.40;63.80;100662.60;1739720;80;30051;-78
2022/10/18 15:19:41;;;;;;;11.12;7.85;;;;;;;18.34;63.71;100659.11;1762024;80;25512;-70
2022/10/18 15:22:09;;;;;;;10.35;6.83;;;;;;;18.25;63.83;100657.36;1747333;79;25706;-77
2022/10/18 15:24:40;;;;;;;8.83;7.00;;;;;;;18.20;64.01;100658.17;1750955;79;25747;-78
2022/10/18 15:27:28;;;;;;;11.53;6.42;;;;;;;18.14;64.33;100655.49;1746578;79;25673;-78
2022/10/18 15:29:56;;;;;;;8.15;6.12;;;;;;;18.06;64.43;100659.39;1713939;81;28038;-77
2022/10/18 15:32:30;;;;;;;11.48;6.78;;;;;;;17.99;64.71;100656.47;1765694;79;25591;-68
2022/10/18 15:35:17;;;;;;;12.40;7.17;;;;;;;17.93;64.85;100656.52;1765053;79;25506;-69
2022/10/18 15:37:47;;;;;;;6.92;4.85;;;;;;;17.85;65.03;100652.75;1796458;79;25658;-69
2022/10/18 15:40:29;;;;;;;6.03;4.65;;;;;;;17.77;65.49;100657.80;1800113;79;25655;-69
2022/10/18 15:43:01;;;;;;;5.37;4.47;;;;;;;17.68;65.76;100658.53;1709024;81;27378;-69
2022/10/18 15:45:35;;;;;;;7.37;4.72;;;;;;;17.59;66.16;100652.40;1730744;81;25652;-74
2022/10/18 15:48:11;;;;;;;7.90;5.75;;;;;;;17.52;66.71;100655.73;1736346;82;25432;-70
2022/10/18 15:50:46;;;;;;;10.78;5.78;;;;;;;17.47;66.91;100651.87;1728417;82;25611;-71
2022/10/18 15:53:43;;;;;;;8.70;5.37;;;;;;;17.44;67.49;100667.63;1701825;82;25605;-70
2022/10/18 15:56:32;;;;;;;14.23;7.33;;;;;;;17.39;67.71;100671.39;1711489;80;27316;-71
2022/10/18 15:59:05;;;;;;;;;;;;;;;17.35;68.25;100675.97;1694550;83;25514;-70
2022/10/18 16:01:42;;;;;;;13.88;8.25;;;;;;;17.30;68.89;100693.98;1714727;82;25745;-72
2022/10/18 16:04:26;;;;;;;12.95;7.95;;;;;;;17.22;69.21;100709.35;1725040;82;26006;-71
2022/10/18 16:06:56;;;;;;;16.50;9.48;;;;;;;17.16;68.82;100703.33;1712683;81;25606;-71
2022/10/18 16:09:26;;;;;;;11.00;8.68;;;;;;;17.11;69.84;100674.87;1743374;81;27210;-69
2022/10/18 16:11:54;;;;;;;11.03;6.70;;;;;;;17.04;70.14;100682.04;1745850;81;25641;-69
2022/10/18 16:14:21;;;;;;;25.57;15.32;;;;;;;16.94;70.52;100722.91;1717110;81;25455;-69
2022/10/18 16:16:53;;;;;;;20.12;10.25;;;;;;;16.83;70.85;100740.30;1698865;81;25682;-69
2022/10/18 16:19:22;;;;;;;18.77;10.80;;;;;;;16.75;70.92;100721.53;1747446;81;25600;-69
2022/10/18 16:21:52;;;;;;;13.40;8.53;;;;;;;16.70;71.24;100714.11;1742716;81;27190;-71
2022/10/18 16:24:20;;;;;;;;;;;;;;;16.65;71.34;100741.06;1750893;81;25565;-71
2022/10/18 16:26:48;;;;;;;10.80;8.20;;;;;;;16.58;72.16;100774.41;1706934;81;25649;-73
2022/10/18 16:29:23;;;;;;;14.95;9.63;;;;;;;16.47;72.58;100783.38;1694437;82;25660;-73
2022/10/18 16:31:52;;;;;;;13.75;9.80;;;;;;;16.38;72.93;100776.06;1714446;81;25522;-72
2022/10/18 16:34:19;;;;;;;14.73;11.12;;;;;;;16.31;73.50;100768.99;1703316;81;27363;-73
2022/10/18 16:36:47;;;;;;;15.15;11.18;;;;;;;16.24;73.73;100744.97;1699909;82;25744;-74
2022/10/18 16:39:17;;;;;;;14.83;11.18;;;;;;;16.19;73.64;100734.81;1704940;82;25810;-74
2022/10/18 16:41:45;;;;;;;14.30;10.88;;;;;;;16.14;73.95;100744.02;1708340;80;26124;-73
2022/10/18 16:44:14;;;;;;;21.25;13.53;;;;;;;16.10;74.10;100736.84;1717783;81;25632;-73
2022/10/18 16:46:41;;;;;;;15.35;11.53;;;;;;;16.01;74.24;100714.52;1709678;82;27388;-71
2022/10/18 16:49:19;;;;;;;18.23;11.68;;;;;;;15.96;74.31;100707.91;1699916;82;25627;-75
2022/10/18 16:51:46;;;;;;;14.07;10.78;;;;;;;15.92;74.56;100708.36;1708122;82;26166;-71
2022/10/18 16:54:13;;;;;;;14.63;10.85;;;;;;;15.85;74.65;100714.89;1715861;81;25683;-72
2022/10/18 16:56:41;;;;;;;14.87;11.20;;;;;;;15.81;75.16;100723.52;1736153;81;25605;-73
2022/10/18 16:59:13;;;;;;;14.70;10.85;;;;;;;15.75;75.29;100728.91;1764873;81;27228;-73
2022/10/18 17:01:40;;;;;;;16.90;12.28;;;;;;;15.70;75.53;100736.75;1713110;82;25578;-73
2022/10/18 17:04:07;;;;;;;19.27;12.93;;;;;;;15.65;76.09;100741.83;1748405;81;25318;-73
2022/10/18 17:06:35;;;;;;;17.75;12.98;;;;;;;15.62;76.64;100745.21;1731957;81;25679;-73
2022/10/18 17:09:02;;;;;;;17.95;13.65;;;;;;;15.60;77.04;100749.41;1703910;83;25654;-73
2022/10/18 17:11:30;;;;;;;19.98;13.28;;;;;;;15.56;77.08;100760.19;1727179;81;27304;-73
2022/10/18 17:13:57;;;;;;;21.95;13.85;;;;;;;15.54;77.40;100767.09;1742385;81;26117;-76
2022/10/18 17:16:31;;;;;;;24.15;13.85;;;;;;;15.52;77.50;100770.71;1733649;81;25500;-74
2022/10/18 17:19:03;;;;;;;20.50;14.93;;;;;;;15.49;77.66;100762.61;1751825;81;25645;-74
2022/10/18 17:21:32;;;;;;;24.90;15.05;;;;;;;15.45;77.97;100759.75;1732443;81;25619;-74
2022/10/18 17:24:04;;;;;;;;;;;;;;;15.43;78.20;100766.11;1738824;81;27350;-72
2022/10/18 17:26:33;;;;;;;22.48;14.45;;;;;;;15.41;78.55;100767.55;1749525;81;25535;-72
2022/10/18 17:29:04;;;;;;;18.87;14.73;;;;;;;15.38;78.61;100773.69;1733748;81;25570;-72
2022/10/18 17:31:31;;;;;;;20.97;14.95;;;;;;;15.35;79.04;100775.13;1747148;81;27227;-71
2022/10/18 17:34:00;;;;;;;20.30;14.87;;;;;;;15.31;79.08;100764.09;1739696;81;25534;-72
2022/10/18 17:36:30;;;;;;;22.33;14.73;;;;;;;15.27;79.02;100761.80;1730103;81;27310;-73
2022/10/18 17:38:57;;;;;;;;;;;;;;;15.25;79.21;100768.69;1731315;81;25553;-74